createdAt,value
2023-04-30T00:00:45.707Z,6.27
2023-04-30T00:06:08.108Z,6.20
2023-04-30T00:11:13.591Z,6.11
2023-04-30T00:16:19.170Z,6.03
2023-04-30T00:21:24.623Z,5.95
2023-04-30T00:26:30.219Z,5.85
2023-04-30T00:31:35.982Z,5.77
2023-04-30T00:36:41.327Z,5.75
2023-04-30T00:41:47.056Z,5.69
2023-04-30T00:46:52.371Z,5.66
2023-04-30T00:51:57.943Z,5.58
2023-04-30T00:57:05.837Z,5.48
2023-04-30T01:02:12.100Z,5.37
2023-04-30T01:07:17.637Z,5.23
2023-04-30T01:12:34.875Z,5.11
2023-04-30T01:17:46.184Z,4.99
2023-04-30T01:23:00.747Z,4.91
2023-04-30T01:28:09.255Z,4.88
2023-04-30T01:33:15.668Z,4.81
2023-04-30T01:38:34.083Z,4.73
2023-04-30T01:43:48.179Z,4.70
2023-04-30T01:49:01.471Z,4.64
2023-04-30T01:54:16.061Z,4.55
2023-04-30T01:59:23.263Z,4.50
2023-04-30T02:04:29.147Z,4.49
2023-04-30T02:09:34.437Z,4.46
2023-04-30T02:14:40.732Z,4.42
2023-04-30T02:19:46.098Z,4.34
2023-04-30T02:24:53.649Z,4.29
2023-04-30T02:29:59.578Z,4.25
2023-04-30T02:35:06.088Z,4.21
2023-04-30T02:40:12.958Z,4.20
2023-04-30T02:45:18.414Z,4.17
2023-04-30T02:50:23.742Z,4.10
2023-04-30T02:55:29.086Z,4.00
2023-04-30T03:00:34.556Z,3.96
2023-04-30T03:05:39.958Z,3.90
2023-04-30T03:10:45.356Z,3.80
2023-04-30T03:15:56.507Z,3.72
2023-04-30T03:21:01.931Z,3.70
2023-04-30T03:26:08.543Z,3.65
2023-04-30T03:31:13.902Z,3.57
2023-04-30T03:36:19.305Z,3.51
2023-04-30T03:41:24.705Z,3.48
2023-04-30T03:46:30.320Z,3.42
2023-04-30T03:51:39.768Z,3.39
2023-04-30T03:56:45.225Z,3.38
2023-04-30T04:01:51.060Z,3.32
2023-04-30T04:06:56.949Z,3.31
2023-04-30T04:12:02.825Z,3.31
2023-04-30T04:17:08.233Z,3.27
2023-04-30T04:22:13.807Z,3.27
2023-04-30T04:27:20.547Z,3.29
2023-04-30T04:32:25.938Z,3.32
2023-04-30T04:37:31.198Z,3.38
2023-04-30T04:42:36.650Z,3.47
2023-04-30T04:47:42.003Z,3.64
2023-04-30T04:52:47.677Z,4.12
2023-04-30T04:57:53.010Z,4.79
2023-04-30T05:02:58.432Z,5.17
2023-04-30T05:08:04.711Z,5.70
2023-04-30T05:13:10.075Z,6.19
2023-04-30T05:18:15.413Z,6.51
2023-04-30T05:23:20.746Z,6.69
2023-04-30T05:28:26.552Z,6.89
2023-04-30T05:33:31.993Z,7.14
2023-04-30T05:38:37.368Z,7.45
2023-04-30T05:43:42.658Z,7.66
2023-04-30T05:48:48.497Z,7.72
2023-04-30T05:53:53.884Z,8.14
2023-04-30T05:58:59.460Z,8.29
2023-04-30T06:04:05.330Z,8.37
2023-04-30T06:09:10.788Z,8.65
2023-04-30T06:14:16.548Z,8.86
2023-04-30T06:19:22.003Z,9.01
2023-04-30T06:24:27.670Z,9.05
2023-04-30T06:29:33.115Z,9.27
2023-04-30T06:34:39.044Z,9.33
2023-04-30T06:39:44.408Z,9.55
2023-04-30T06:44:49.750Z,9.55
2023-04-30T06:49:55.625Z,9.63
2023-04-30T06:55:01.384Z,9.74
2023-04-30T07:00:09.009Z,10.05
2023-04-30T07:05:14.469Z,10.21
2023-04-30T07:10:20.057Z,10.39
2023-04-30T07:15:25.363Z,10.74
2023-04-30T07:20:30.833Z,10.87
2023-04-30T07:25:36.198Z,10.58
2023-04-30T07:30:42.721Z,10.47
2023-04-30T07:35:52.130Z,10.71
2023-04-30T07:40:58.318Z,10.85
2023-04-30T07:46:04.095Z,11.26
2023-04-30T07:51:09.837Z,11.43
2023-04-30T07:56:15.256Z,11.55
2023-04-30T08:01:20.712Z,11.41
2023-04-30T08:06:27.841Z,11.39
2023-04-30T08:11:37.043Z,11.62
2023-04-30T08:16:52.357Z,11.75
2023-04-30T08:21:58.602Z,11.98
2023-04-30T08:27:04.292Z,12.00
2023-04-30T08:32:10.137Z,12.04
2023-04-30T08:37:15.941Z,12.20
2023-04-30T08:42:25.003Z,12.36
2023-04-30T08:47:30.562Z,12.44
2023-04-30T08:52:37.462Z,12.25
2023-04-30T08:57:42.830Z,12.38
2023-04-30T09:02:50.375Z,12.42
2023-04-30T09:08:03.775Z,12.56
2023-04-30T09:13:12.261Z,12.67
2023-04-30T09:18:18.866Z,12.86
2023-04-30T09:23:25.342Z,13.11
2023-04-30T09:28:31.814Z,13.07
2023-04-30T09:33:47.425Z,12.94
2023-04-30T09:38:52.928Z,12.77
2023-04-30T09:43:58.913Z,12.96
2023-04-30T09:49:05.900Z,13.39
2023-04-30T09:54:23.470Z,13.44
2023-04-30T09:59:31.196Z,13.23
2023-04-30T10:04:44.614Z,13.41
2023-04-30T10:09:55.907Z,13.55
2023-04-30T10:15:09.965Z,13.68
2023-04-30T10:20:17.478Z,13.70
2023-04-30T10:25:23.719Z,13.83
2023-04-30T10:30:31.746Z,13.84
2023-04-30T10:35:47.413Z,14.08
2023-04-30T10:40:54.938Z,14.33
2023-04-30T10:46:00.755Z,14.40
2023-04-30T10:51:08.777Z,14.35
2023-04-30T10:56:14.271Z,14.25
2023-04-30T11:01:20.759Z,14.33
2023-04-30T11:06:27.011Z,14.38
2023-04-30T11:11:35.278Z,14.46
2023-04-30T11:16:41.449Z,14.66
2023-04-30T11:22:18.687Z,14.83
2023-04-30T11:27:26.152Z,15.17
2023-04-30T11:32:36.227Z,15.35
2023-04-30T11:37:44.450Z,15.31
2023-04-30T11:42:49.831Z,15.29
2023-04-30T11:47:57.046Z,15.50
2023-04-30T11:53:05.301Z,15.66
2023-04-30T11:58:10.936Z,15.75
2023-04-30T12:03:17.526Z,15.58
2023-04-30T12:08:23.792Z,15.61
2023-04-30T12:13:30.823Z,15.94
2023-04-30T12:18:36.449Z,15.97
2023-04-30T12:23:41.974Z,16.13
2023-04-30T12:28:49.942Z,15.93
2023-04-30T12:33:58.388Z,15.99
2023-04-30T12:39:09.894Z,16.33
2023-04-30T12:44:21.215Z,16.54
2023-04-30T12:49:28.439Z,16.46
2023-04-30T12:54:34.793Z,16.28
2023-04-30T12:59:56.887Z,16.02
2023-04-30T13:05:02.670Z,16.03
2023-04-30T13:10:09.725Z,16.06
2023-04-30T13:15:15.373Z,15.99
2023-04-30T13:20:20.704Z,16.04
2023-04-30T13:25:26.139Z,16.08
2023-04-30T13:30:31.616Z,16.03
2023-04-30T13:35:37.015Z,16.19
2023-04-30T13:40:42.366Z,16.13
2023-04-30T13:45:47.732Z,16.15
2023-04-30T13:50:53.991Z,16.02
2023-04-30T13:56:00.040Z,15.87
2023-04-30T14:01:05.528Z,15.88
2023-04-30T14:06:11.876Z,15.97
2023-04-30T14:11:17.240Z,16.04
2023-04-30T14:16:22.873Z,16.08
2023-04-30T14:21:28.738Z,15.89
2023-04-30T14:26:34.242Z,15.82
2023-04-30T14:31:39.674Z,15.82
2023-04-30T14:36:45.105Z,15.88
2023-04-30T14:41:51.681Z,15.85
2023-04-30T14:46:58.466Z,15.83
2023-04-30T14:52:03.934Z,15.73
2023-04-30T14:57:09.748Z,15.55
2023-04-30T15:02:15.147Z,15.53
2023-04-30T15:07:21.193Z,15.52
2023-04-30T15:12:26.885Z,15.57
2023-04-30T15:17:36.726Z,15.34
2023-04-30T15:22:42.745Z,15.22
2023-04-30T15:27:48.428Z,15.16
2023-04-30T15:32:53.806Z,15.19
2023-04-30T15:37:59.282Z,15.23
2023-04-30T15:43:06.137Z,15.22
2023-04-30T15:48:11.761Z,15.18
2023-04-30T15:53:17.117Z,15.10
2023-04-30T15:58:22.588Z,15.09
2023-04-30T16:03:28.019Z,15.05
2023-04-30T16:08:34.242Z,14.99
2023-04-30T16:13:39.864Z,14.95
2023-04-30T16:18:46.251Z,14.94
2023-04-30T16:23:52.629Z,14.86
2023-04-30T16:28:57.976Z,14.78
2023-04-30T16:34:03.569Z,14.65
2023-04-30T16:39:09.113Z,14.53
2023-04-30T16:44:14.550Z,14.43
2023-04-30T16:49:20.185Z,14.33
2023-04-30T16:54:25.888Z,14.19
2023-04-30T16:59:31.183Z,14.07
2023-04-30T17:04:36.632Z,13.94
2023-04-30T17:09:42.478Z,13.82
2023-04-30T17:14:48.042Z,13.71
2023-04-30T17:19:53.679Z,13.60
2023-04-30T17:25:00.324Z,13.46
2023-04-30T17:30:09.836Z,13.33
2023-04-30T17:35:15.446Z,13.20
2023-04-30T17:40:20.848Z,13.10
2023-04-30T17:45:26.926Z,13.01
2023-04-30T17:50:32.347Z,12.92
2023-04-30T17:55:37.703Z,12.80
2023-04-30T18:00:43.605Z,12.66
2023-04-30T18:05:49.157Z,12.46
2023-04-30T18:10:55.031Z,12.27
2023-04-30T18:16:00.532Z,12.10
2023-04-30T18:21:05.967Z,11.94
2023-04-30T18:26:11.426Z,11.79
2023-04-30T18:31:16.812Z,11.62
2023-04-30T18:36:23.636Z,11.41
2023-04-30T18:41:29.504Z,11.18
2023-04-30T18:46:34.793Z,10.97
2023-04-30T18:51:40.126Z,10.73
2023-04-30T18:56:45.501Z,10.51
2023-04-30T19:01:51.047Z,10.33
2023-04-30T19:06:56.569Z,10.12
2023-04-30T19:12:02.387Z,9.93
2023-04-30T19:17:08.045Z,9.74
2023-04-30T19:22:15.180Z,9.56
2023-04-30T19:27:20.591Z,9.40
2023-04-30T19:32:26.441Z,9.23
2023-04-30T19:37:32.111Z,9.06
2023-04-30T19:42:37.576Z,8.89
2023-04-30T19:47:42.988Z,8.75
2023-04-30T19:52:48.397Z,8.56
2023-04-30T19:57:54.037Z,8.35
2023-04-30T20:03:04.218Z,8.23
2023-04-30T20:08:10.086Z,8.11
2023-04-30T20:13:17.217Z,8.00
2023-04-30T20:18:22.530Z,7.85
2023-04-30T20:23:28.140Z,7.74
2023-04-30T20:28:33.537Z,7.60
2023-04-30T20:33:41.178Z,7.47
2023-04-30T20:38:46.452Z,7.35
2023-04-30T20:43:52.184Z,7.24
2023-04-30T20:49:03.922Z,7.13
2023-04-30T20:54:09.441Z,7.02
2023-04-30T20:59:14.870Z,6.94
2023-04-30T21:04:20.247Z,6.87
2023-04-30T21:09:25.691Z,6.77
2023-04-30T21:14:31.255Z,6.66
2023-04-30T21:19:36.848Z,6.54
2023-04-30T21:24:42.248Z,6.38
2023-04-30T21:29:47.812Z,6.22
2023-04-30T21:34:53.060Z,6.11
2023-04-30T21:39:58.588Z,5.92
2023-04-30T21:45:04.915Z,5.84
2023-04-30T21:50:12.355Z,5.79
2023-04-30T21:55:17.786Z,5.72
2023-04-30T22:00:23.617Z,5.62
2023-04-30T22:05:29.244Z,5.45
2023-04-30T22:10:34.529Z,5.37
2023-04-30T22:15:47.593Z,5.29
2023-04-30T22:20:54.410Z,5.22
2023-04-30T22:25:59.961Z,5.15
2023-04-30T22:31:05.440Z,5.04
2023-04-30T22:36:11.014Z,4.96
2023-04-30T22:41:16.324Z,4.90
2023-04-30T22:46:21.968Z,4.85
2023-04-30T22:51:28.080Z,4.77
2023-04-30T22:56:34.365Z,4.69
2023-04-30T23:01:39.788Z,4.60
2023-04-30T23:06:45.105Z,4.49
2023-04-30T23:11:51.070Z,4.35
2023-04-30T23:16:57.058Z,4.27
2023-04-30T23:22:02.522Z,4.23
2023-04-30T23:27:08.576Z,4.18
2023-04-30T23:32:14.189Z,4.13
2023-04-30T23:37:19.555Z,4.07
2023-04-30T23:42:24.887Z,3.96
2023-04-30T23:47:30.527Z,3.89
2023-04-30T23:52:36.895Z,3.82
2023-04-30T23:57:42.662Z,3.73
